Time;durP1;ratioP1;P1;durP2;ratioP2;P2;SDS_P1;SDS_P2;PMS_P1;PMS_P2;Temp;Humidity;BMP_temperature;BMP_pressure;BME280_temperature;BME280_humidity;BME280_pressure;Samples;Min_cycle;Max_cycle;Signal;HPM_P1;HPM_P2
2021/05/25 00:01:34;;;;;;;5.23;4.60;;;13.10;98.30;;;;;;4328642;23;20498;-86
2021/05/25 00:03:36;;;;;;;5.87;4.13;;;13.10;98.30;;;;;;4129869;28;21043;-86
2021/05/25 00:05:39;;;;;;;4.50;4.00;;;13.00;98.30;;;;;;4126673;28;20463;-86
2021/05/25 00:07:41;;;;;;;4.20;3.80;;;13.00;98.30;;;;;;4127940;28;20474;-86
2021/05/25 00:09:44;;;;;;;5.37;3.97;;;12.90;98.30;;;;;;4125298;28;20503;-86
2021/05/25 00:11:46;;;;;;;4.60;4.20;;;12.90;98.30;;;;;;4119047;28;20567;-86
2021/05/25 00:13:49;;;;;;;3.97;3.47;;;12.80;98.30;;;;;;4109051;28;20472;-86
2021/05/25 00:15:53;;;;;;;4.20;3.47;;;12.80;98.30;;;;;;4105038;28;20472;-86
2021/05/25 00:17:57;;;;;;;12.90;3.80;;;12.80;98.30;;;;;;4110487;28;20525;-86
2021/05/25 00:19:59;;;;;;;4.10;3.70;;;12.80;98.30;;;;;;4113737;28;20519;-86
2021/05/25 00:22:02;;;;;;;5.03;3.73;;;12.90;98.30;;;;;;4112397;28;20498;-86
2021/05/25 00:24:05;;;;;;;4.17;3.77;;;12.80;98.30;;;;;;4105859;28;20564;-86
2021/05/25 00:26:07;;;;;;;4.00;3.37;;;12.80;98.30;;;;;;4108538;28;20483;-84
2021/05/25 00:28:10;;;;;;;3.60;3.30;;;12.80;98.30;;;;;;4108975;28;20554;-86
2021/05/25 00:30:14;;;;;;;4.07;3.40;;;12.90;98.30;;;;;;4098895;29;20475;-86
2021/05/25 00:32:17;;;;;;;3.83;3.40;;;12.80;98.30;;;;;;4102566;28;20522;-85
2021/05/25 00:34:20;;;;;;;6.07;3.40;;;12.80;98.30;;;;;;4100231;28;20591;-86
2021/05/25 00:36:24;;;;;;;6.10;3.70;;;12.80;98.30;;;;;;4107501;28;20504;-85
2021/05/25 00:38:27;;;;;;;3.73;3.27;;;12.80;98.30;;;;;;4105306;28;20491;-84
2021/05/25 00:40:29;;;;;;;4.60;3.60;;;12.80;98.30;;;;;;4106364;28;20504;-86
2021/05/25 00:42:32;;;;;;;4.97;3.57;;;12.70;98.30;;;;;;4100952;28;20502;-87
2021/05/25 00:44:35;;;;;;;7.03;3.60;;;12.80;98.30;;;;;;4104816;28;20468;-86
2021/05/25 00:46:38;;;;;;;4.47;3.40;;;12.70;98.30;;;;;;4110427;28;20495;-85
2021/05/25 00:48:41;;;;;;;4.50;3.80;;;12.70;98.30;;;;;;4113692;28;20482;-85
2021/05/25 00:50:44;;;;;;;3.73;3.13;;;12.70;98.30;;;;;;4114209;28;20474;-85
2021/05/25 00:52:48;;;;;;;4.33;3.60;;;12.70;98.30;;;;;;4110778;28;20472;-86
2021/05/25 00:54:51;;;;;;;4.33;3.50;;;12.70;98.30;;;;;;4107018;28;20472;-86
2021/05/25 00:56:54;;;;;;;6.80;3.47;;;12.60;98.30;;;;;;4107680;28;20511;-86
2021/05/25 00:58:57;;;;;;;3.47;3.17;;;12.60;98.30;;;;;;4112517;28;20476;-85
2021/05/25 01:01:00;;;;;;;4.13;3.37;;;12.50;98.30;;;;;;4103479;28;20852;-87
2021/05/25 01:03:03;;;;;;;3.40;3.10;;;12.60;98.30;;;;;;4104627;28;20475;-87
2021/05/25 01:05:09;;;;;;;3.47;3.17;;;12.60;98.30;;;;;;4101624;28;20528;-85
2021/05/25 01:07:13;;;;;;;4.07;3.50;;;12.50;98.30;;;;;;4102545;28;20479;-86
2021/05/25 01:09:17;;;;;;;3.73;2.90;;;12.60;98.30;;;;;;4107208;28;21044;-87
2021/05/25 01:11:21;;;;;;;3.77;3.40;;;12.50;98.30;;;;;;4102629;28;20551;-87
2021/05/25 01:13:26;;;;;;;5.50;3.80;;;12.50;98.30;;;;;;4105630;28;20476;-87
2021/05/25 01:15:29;;;;;;;3.50;3.20;;;12.60;98.30;;;;;;4106888;28;20472;-86
2021/05/25 01:17:32;;;;;;;3.50;3.20;;;12.60;98.30;;;;;;4113269;28;20471;-85
2021/05/25 01:19:35;;;;;;;3.93;3.53;;;12.60;98.30;;;;;;4106007;28;20474;-86
2021/05/25 01:21:38;;;;;;;4.27;3.77;;;12.50;98.30;;;;;;4109660;28;20918;-87
2021/05/25 01:23:41;;;;;;;4.27;3.37;;;12.50;98.30;;;;;;4103349;28;20495;-86
2021/05/25 01:25:46;;;;;;;4.97;3.70;;;12.60;98.30;;;;;;4100485;28;20467;-85
2021/05/25 01:27:53;;;;;;;3.60;3.30;;;12.50;98.30;;;;;;4103690;28;20481;-86
2021/05/25 01:29:55;;;;;;;3.77;3.37;;;12.60;98.30;;;;;;4102903;28;20475;-87
2021/05/25 01:31:58;;;;;;;4.07;3.60;;;12.60;98.30;;;;;;4105368;28;20848;-86
2021/05/25 01:34:01;;;;;;;4.30;3.90;;;12.50;98.30;;;;;;4104220;28;20470;-86
2021/05/25 01:36:05;;;;;;;3.60;3.30;;;12.60;98.30;;;;;;4104373;28;20469;-86
2021/05/25 01:38:10;;;;;;;3.70;3.40;;;12.60;98.30;;;;;;4104416;28;20471;-86
2021/05/25 01:40:13;;;;;;;4.17;3.77;;;12.60;98.30;;;;;;4104663;28;20473;-86
2021/05/25 01:42:16;;;;;;;7.97;3.70;;;12.60;98.30;;;;;;4110040;28;20499;-85
2021/05/25 01:44:18;;;;;;;4.43;3.50;;;12.50;98.30;;;;;;4105949;28;20468;-86
2021/05/25 01:46:21;;;;;;;4.30;3.90;;;12.50;98.30;;;;;;4104035;28;20568;-86
2021/05/25 01:48:23;;;;;;;5.23;3.90;;;12.50;98.30;;;;;;4103157;28;20482;-85
2021/05/25 01:50:27;;;;;;;5.27;3.90;;;12.50;98.30;;;;;;4104587;28;20486;-86
2021/05/25 01:52:29;;;;;;;4.20;3.80;;;12.50;98.30;;;;;;4107038;28;20488;-86
2021/05/25 01:54:33;;;;;;;4.00;3.60;;;12.50;98.30;;;;;;4112002;28;20475;-86
2021/05/25 01:56:35;;;;;;;3.67;3.37;;;12.60;98.30;;;;;;4106140;28;20473;-86
2021/05/25 01:58:38;;;;;;;3.93;3.63;;;12.40;98.30;;;;;;4101830;28;20468;-86
2021/05/25 02:01:07;;;;;;;4.20;3.77;;;12.40;98.30;;;;;;4103310;28;20857;-86
2021/05/25 02:03:12;;;;;;;4.37;3.97;;;12.30;98.30;;;;;;4099335;28;20469;-86
2021/05/25 02:05:14;;;;;;;4.00;3.60;;;12.30;98.30;;;;;;4103144;28;21003;-86
2021/05/25 02:07:18;;;;;;;6.53;3.83;;;12.40;98.30;;;;;;4102249;28;20560;-86
2021/05/25 02:09:21;;;;;;;5.80;3.70;;;12.40;98.30;;;;;;4102794;28;20923;-86
2021/05/25 02:11:24;;;;;;;4.90;3.60;;;12.40;98.30;;;;;;4104689;28;21085;-86
2021/05/25 02:13:28;;;;;;;5.23;3.70;;;12.40;98.30;;;;;;4106440;28;20473;-86
2021/05/25 02:15:31;;;;;;;4.87;4.37;;;12.30;98.30;;;;;;4103450;28;20841;-86
2021/05/25 02:17:34;;;;;;;5.03;4.53;;;12.20;98.30;;;;;;4103852;28;20463;-86
2021/05/25 02:19:37;;;;;;;4.47;4.03;;;12.20;98.30;;;;;;4104010;28;20472;-86
2021/05/25 02:21:39;;;;;;;6.63;4.20;;;12.20;98.30;;;;;;4104622;28;20563;-85
2021/05/25 02:23:42;;;;;;;5.27;3.83;;;12.20;98.30;;;;;;4102512;28;20469;-86
2021/05/25 02:25:45;;;;;;;4.73;3.87;;;12.20;98.30;;;;;;4098813;28;20474;-86
2021/05/25 02:27:48;;;;;;;4.67;3.67;;;12.10;98.30;;;;;;4105363;28;20460;-86
2021/05/25 02:29:51;;;;;;;4.57;4.17;;;12.20;98.30;;;;;;4104418;28;20468;-86
2021/05/25 02:31:53;;;;;;;4.43;4.03;;;12.20;98.30;;;;;;4096702;28;20489;-86
2021/05/25 02:33:56;;;;;;;6.60;4.83;;;12.20;98.30;;;;;;4101857;28;20477;-85
2021/05/25 02:36:00;;;;;;;5.13;4.03;;;12.30;98.30;;;;;;4105285;28;20481;-86
2021/05/25 02:38:03;;;;;;;4.23;3.83;;;12.30;98.30;;;;;;4105536;28;20950;-86
2021/05/25 02:40:08;;;;;;;3.70;3.40;;;12.30;98.30;;;;;;4107936;28;20591;-86
2021/05/25 02:42:10;;;;;;;5.57;3.83;;;12.30;98.30;;;;;;4103051;28;20505;-86
2021/05/25 02:44:14;;;;;;;4.30;3.90;;;12.30;98.30;;;;;;4104759;28;20553;-86
2021/05/25 02:46:16;;;;;;;5.03;4.20;;;12.20;98.30;;;;;;4106613;28;20472;-86
2021/05/25 02:48:22;;;;;;;7.90;4.00;;;12.20;98.30;;;;;;4105645;28;20480;-86
2021/05/25 02:50:25;;;;;;;5.40;4.10;;;12.20;98.30;;;;;;4106249;28;20563;-87
2021/05/25 02:52:27;;;;;;;5.67;4.10;;;12.20;98.30;;;;;;4107730;28;20535;-86
2021/05/25 02:54:30;;;;;;;4.67;3.90;;;12.20;98.30;;;;;;4107495;28;20465;-86
2021/05/25 02:56:32;;;;;;;4.40;4.00;;;12.10;98.30;;;;;;4107027;28;20468;-86
2021/05/25 02:58:34;;;;;;;5.17;4.67;;;12.10;98.30;;;;;;4107295;28;20997;-85
2021/05/25 03:00:40;;;;;;;4.40;4.00;;;12.10;98.30;;;;;;4105526;28;20474;-86
2021/05/25 03:02:42;;;;;;;5.33;4.37;;;12.10;98.30;;;;;;4107237;28;20495;-86
2021/05/25 03:04:45;;;;;;;5.40;4.37;;;12.10;98.30;;;;;;4107619;28;20468;-86
2021/05/25 03:06:47;;;;;;;6.50;3.97;;;12.10;98.30;;;;;;4106802;28;20844;-86
2021/05/25 03:08:50;;;;;;;5.00;4.00;;;12.20;98.30;;;;;;4103878;28;20467;-85
2021/05/25 03:10:52;;;;;;;4.30;3.90;;;12.20;98.30;;;;;;4109882;28;20559;-85
2021/05/25 03:12:55;;;;;;;4.33;3.93;;;12.20;98.30;;;;;;4106242;28;20553;-86
2021/05/25 03:14:57;;;;;;;6.07;4.20;;;12.20;98.30;;;;;;4107687;28;20469;-85
2021/05/25 03:17:01;;;;;;;4.50;4.10;;;12.20;98.30;;;;;;4105132;28;21196;-86
2021/05/25 03:19:04;;;;;;;6.33;4.00;;;12.20;98.30;;;;;;4099889;29;20477;-86
2021/05/25 03:21:06;;;;;;;4.47;4.07;;;12.30;98.30;;;;;;4102051;28;20519;-86
2021/05/25 03:23:09;;;;;;;6.33;5.73;;;12.30;98.30;;;;;;4107319;28;20485;-86
2021/05/25 03:25:14;;;;;;;7.57;4.77;;;12.20;98.30;;;;;;4106736;28;20546;-85
2021/05/25 03:27:16;;;;;;;5.23;4.57;;;12.10;98.30;;;;;;4105384;28;20845;-86
2021/05/25 03:29:19;;;;;;;4.77;4.27;;;12.00;98.30;;;;;;4111329;28;20479;-85
2021/05/25 03:31:21;;;;;;;5.23;4.67;;;12.00;98.30;;;;;;4109461;28;20500;-86
2021/05/25 03:33:24;;;;;;;5.73;4.87;;;12.00;98.30;;;;;;4114168;28;20566;-86
2021/05/25 03:35:28;;;;;;;6.27;4.40;;;12.00;98.30;;;;;;4109793;28;20480;-87
2021/05/25 03:37:30;;;;;;;5.10;4.47;;;12.00;98.30;;;;;;4104620;28;20507;-86
2021/05/25 03:39:32;;;;;;;5.60;5.03;;;12.00;98.30;;;;;;4106344;28;20823;-85
2021/05/25 03:41:35;;;;;;;5.37;4.87;;;12.00;98.30;;;;;;4105316;28;20481;-87
2021/05/25 03:43:37;;;;;;;6.40;4.67;;;12.00;98.30;;;;;;4105715;28;20965;-86
2021/05/25 03:45:40;;;;;;;11.03;5.47;;;12.00;98.30;;;;;;4101675;28;20538;-86
2021/05/25 03:47:42;;;;;;;5.80;4.93;;;12.00;98.30;;;;;;4105112;28;20477;-86
2021/05/25 03:49:46;;;;;;;6.43;4.80;;;11.90;98.30;;;;;;4111325;28;20544;-85
2021/05/25 03:51:49;;;;;;;5.70;5.10;;;11.90;98.30;;;;;;4112155;28;20502;-86
2021/05/25 03:53:53;;;;;;;5.23;4.83;;;11.80;98.30;;;;;;4106130;28;20477;-85
2021/05/25 03:56:15;;;;;;;5.33;4.83;;;11.80;98.30;;;;;;4108243;28;20464;-85
2021/05/25 04:00:35;;;;;;;5.50;4.13;;;11.70;98.30;;;;;;4100003;28;20555;-86
2021/05/25 04:02:37;;;;;;;5.70;5.20;;;11.70;98.30;;;;;;4107377;28;20579;-86
2021/05/25 04:04:40;;;;;;;5.40;4.90;;;11.70;98.30;;;;;;4104361;28;20476;-86
2021/05/25 04:06:43;;;;;;;6.00;5.40;;;11.60;98.30;;;;;;4109312;28;20483;-86
2021/05/25 04:08:46;;;;;;;5.73;5.23;;;11.60;98.30;;;;;;4107644;28;20909;-85
2021/05/25 04:10:49;;;;;;;7.30;6.27;;;11.60;98.30;;;;;;4101279;28;20476;-86
2021/05/25 04:12:51;;;;;;;6.90;5.50;;;11.60;98.30;;;;;;4107157;28;20478;-86
2021/05/25 04:14:54;;;;;;;7.23;5.67;;;11.60;98.30;;;;;;4104026;28;20472;-85
2021/05/25 04:16:56;;;;;;;7.20;4.73;;;11.60;98.30;;;;;;4099856;29;20473;-85
2021/05/25 04:18:59;;;;;;;5.93;5.10;;;11.50;98.30;;;;;;4102472;28;20472;-86
2021/05/25 04:21:02;;;;;;;8.27;5.50;;;11.50;98.30;;;;;;4109882;28;20483;-86
2021/05/25 04:23:06;;;;;;;6.23;5.30;;;11.50;98.30;;;;;;4106378;28;20494;-86
2021/05/25 04:25:09;;;;;;;6.20;5.27;;;11.50;98.30;;;;;;4106594;28;20471;-87
2021/05/25 04:27:11;;;;;;;5.50;4.90;;;11.50;98.30;;;;;;4108889;28;20989;-86
2021/05/25 04:29:14;;;;;;;6.03;5.40;;;11.40;98.30;;;;;;4106159;28;20480;-86
2021/05/25 04:31:17;;;;;;;6.43;5.77;;;11.40;98.30;;;;;;4105217;28;20495;-86
2021/05/25 04:33:20;;;;;;;6.20;5.10;;;11.40;98.30;;;;;;4109298;28;20500;-86
2021/05/25 04:35:22;;;;;;;7.40;5.50;;;11.50;98.30;;;;;;4104485;28;20987;-86
2021/05/25 04:37:25;;;;;;;6.60;5.00;;;11.60;98.30;;;;;;4107277;28;20475;-87
2021/05/25 04:39:28;;;;;;;5.77;5.17;;;11.50;98.30;;;;;;4109613;28;20465;-86
2021/05/25 04:41:31;;;;;;;6.73;5.40;;;11.50;98.30;;;;;;4108696;28;21020;-88
2021/05/25 04:43:33;;;;;;;6.30;5.30;;;11.50;98.30;;;;;;4103730;28;20527;-87
2021/05/25 04:45:38;;;;;;;5.80;5.00;;;11.40;98.30;;;;;;4099792;29;20567;-87
2021/05/25 04:47:40;;;;;;;5.40;4.90;;;11.40;98.30;;;;;;4105138;28;20484;-87
2021/05/25 04:49:44;;;;;;;6.87;5.27;;;11.30;98.30;;;;;;4108075;28;20476;-87
2021/05/25 04:51:56;;;;;;;5.90;4.40;;;11.40;98.30;;;;;;4103040;28;20495;-88
2021/05/25 04:53:59;;;;;;;6.50;5.40;;;11.40;98.30;;;;;;4106516;28;20698;-86
2021/05/25 04:56:05;;;;;;;6.10;4.43;;;11.30;98.30;;;;;;4108097;28;20472;-87
2021/05/25 04:58:08;;;;;;;5.23;4.73;;;11.30;98.30;;;;;;4113653;28;20477;-86
2021/05/25 05:00:13;;;;;;;7.67;4.90;;;11.30;98.30;;;;;;4110468;28;20478;-87
2021/05/25 05:02:16;;;;;;;4.40;4.00;;;11.20;98.30;;;;;;4110837;28;20587;-87
2021/05/25 05:04:18;;;;;;;6.13;4.97;;;11.30;98.30;;;;;;4108212;28;20486;-87
2021/05/25 05:06:21;;;;;;;5.83;4.60;;;11.20;98.30;;;;;;4115222;28;20467;-86
2021/05/25 05:08:23;;;;;;;5.33;4.83;;;11.30;98.30;;;;;;4104635;28;20963;-85
2021/05/25 05:10:26;;;;;;;5.27;4.77;;;11.20;98.30;;;;;;4109568;28;20551;-86
2021/05/25 05:12:29;;;;;;;6.47;4.67;;;11.20;98.30;;;;;;4110312;28;20485;-86
2021/05/25 05:14:33;;;;;;;5.40;4.63;;;11.20;98.30;;;;;;4115127;28;20547;-86
2021/05/25 05:16:35;;;;;;;6.87;4.83;;;11.30;98.30;;;;;;4115543;28;20488;-86
2021/05/25 05:18:38;;;;;;;4.87;4.30;;;11.30;98.30;;;;;;4111392;28;20568;-87
2021/05/25 05:20:40;;;;;;;5.37;4.87;;;11.20;98.30;;;;;;4113389;28;20475;-87
2021/05/25 05:22:44;;;;;;;5.57;4.33;;;11.20;98.30;;;;;;4106732;28;20499;-87
2021/05/25 05:24:47;;;;;;;4.97;4.57;;;11.20;98.30;;;;;;4106649;28;20476;-88
2021/05/25 05:26:50;;;;;;;5.73;4.50;;;11.10;98.30;;;;;;4102025;28;20486;-86
2021/05/25 05:28:53;;;;;;;7.00;5.07;;;11.10;98.30;;;;;;4110798;28;20477;-87
2021/05/25 05:30:55;;;;;;;5.23;4.73;;;11.00;98.30;;;;;;4100762;28;20471;-87
2021/05/25 05:32:58;;;;;;;5.40;4.23;;;11.00;98.30;;;;;;4109575;28;20461;-88
2021/05/25 05:35:01;;;;;;;5.90;5.17;;;11.10;98.30;;;;;;4110408;28;20575;-87
2021/05/25 05:37:03;;;;;;;5.47;4.13;;;11.00;98.30;;;;;;4105698;28;20484;-88
2021/05/25 05:39:07;;;;;;;5.10;4.60;;;10.90;98.30;;;;;;4106592;28;20834;-88
2021/05/25 05:41:09;;;;;;;4.40;3.77;;;10.80;98.30;;;;;;4113042;28;20496;-88
2021/05/25 05:43:12;;;;;;;7.03;4.63;;;10.70;98.30;;;;;;4107049;28;20495;-88
2021/05/25 05:45:20;;;;;;;4.50;3.80;;;10.70;98.30;;;;;;4107930;28;20938;-88
2021/05/25 05:47:30;;;;;;;6.20;4.73;;;10.60;98.30;;;;;;4104227;28;20891;-88
2021/05/25 05:49:36;;;;;;;6.57;4.60;;;10.60;98.30;;;;;;4108171;28;20563;-88
2021/05/25 05:51:41;;;;;;;4.43;4.03;;;10.60;98.30;;;;;;4109129;28;20607;-87
2021/05/25 05:53:43;;;;;;;8.30;5.43;;;10.60;98.30;;;;;;4097998;29;20435;-88
2021/05/25 05:55:47;;;;;;;6.40;4.90;;;10.70;98.30;;;;;;4107458;28;20487;-87
2021/05/25 05:57:52;;;;;;;4.97;4.43;;;10.90;98.30;;;;;;4108585;28;20467;-88
2021/05/25 05:59:54;;;;;;;4.53;4.13;;;11.10;98.30;;;;;;4112881;28;20468;-87
2021/05/25 06:01:58;;;;;;;4.30;3.90;;;11.00;98.30;;;;;;4115329;28;20507;-86
2021/05/25 06:04:00;;;;;;;6.53;5.27;;;11.10;98.30;;;;;;4119165;28;20837;-86
2021/05/25 06:06:03;;;;;;;5.67;4.83;;;11.10;98.30;;;;;;4119764;28;20833;-86
2021/05/25 06:08:09;;;;;;;5.93;5.10;;;11.10;98.30;;;;;;4115834;28;20507;-88
2021/05/25 06:10:13;;;;;;;6.57;4.97;;;11.20;98.30;;;;;;4110616;28;20527;-87
2021/05/25 06:12:15;;;;;;;5.50;5.00;;;11.20;98.30;;;;;;4112877;28;20578;-87
2021/05/25 06:14:18;;;;;;;6.67;5.50;;;11.30;98.30;;;;;;4114439;28;20965;-87
2021/05/25 06:16:20;;;;;;;5.00;4.50;;;11.40;98.30;;;;;;4114484;28;20555;-87
2021/05/25 06:18:24;;;;;;;9.47;5.10;;;11.40;98.30;;;;;;4114618;28;20964;-86
2021/05/25 06:20:27;;;;;;;5.17;4.57;;;11.40;98.30;;;;;;4115029;28;20937;-87
2021/05/25 06:22:29;;;;;;;5.97;5.00;;;11.40;98.30;;;;;;4114521;28;20583;-88
2021/05/25 06:24:33;;;;;;;5.33;4.93;;;11.40;98.30;;;;;;4109009;28;20558;-88
2021/05/25 06:26:35;;;;;;;6.70;5.00;;;11.50;98.30;;;;;;4113391;28;20554;-87
2021/05/25 06:28:38;;;;;;;9.20;6.17;;;11.40;98.30;;;;;;4107949;28;20481;-86
2021/05/25 06:30:41;;;;;;;7.10;4.67;;;11.30;98.30;;;;;;4111989;28;20459;-88
2021/05/25 06:32:43;;;;;;;11.30;5.07;;;11.30;98.30;;;;;;4118154;28;20567;-88
2021/05/25 06:34:48;;;;;;;5.93;5.00;;;11.20;98.30;;;;;;4119088;28;20476;-88
2021/05/25 06:36:50;;;;;;;5.80;5.20;;;11.30;98.30;;;;;;4119412;28;20470;-88
2021/05/25 06:38:53;;;;;;;6.67;5.30;;;11.30;98.30;;;;;;4119276;28;20472;-89
2021/05/25 06:40:55;;;;;;;7.23;5.70;;;11.30;98.30;;;;;;4118164;28;21053;-87
2021/05/25 06:42:58;;;;;;;5.80;5.23;;;11.20;98.30;;;;;;4113921;28;20488;-85
2021/05/25 06:45:00;;;;;;;6.60;5.10;;;11.20;98.30;;;;;;4101583;29;20557;-87
2021/05/25 06:47:09;;;;;;;8.37;6.07;;;11.10;98.30;;;;;;4112104;28;20974;-88
2021/05/25 06:49:12;;;;;;;8.60;5.40;;;11.10;98.30;;;;;;4110420;28;21048;-87
2021/05/25 06:51:15;;;;;;;6.20;5.60;;;11.00;98.30;;;;;;4106939;28;21174;-86
2021/05/25 06:53:17;;;;;;;7.00;5.80;;;11.10;98.30;;;;;;4108727;28;20468;-86
2021/05/25 06:55:20;;;;;;;13.60;5.40;;;11.30;98.30;;;;;;4108166;28;20502;-86
2021/05/25 06:57:22;;;;;;;7.13;6.40;;;11.40;98.30;;;;;;4114116;28;20475;-86
2021/05/25 06:59:25;;;;;;;7.80;7.00;;;11.50;98.30;;;;;;4110240;28;20468;-87
2021/05/25 07:01:28;;;;;;;8.70;6.60;;;11.50;98.30;;;;;;4114433;28;20524;-85
2021/05/25 07:03:31;;;;;;;7.60;6.90;;;11.40;98.30;;;;;;4113744;28;20562;-87
2021/05/25 07:05:33;;;;;;;7.33;6.50;;;11.40;98.30;;;;;;4110516;28;20471;-88
2021/05/25 07:07:37;;;;;;;8.13;6.70;;;11.30;98.30;;;;;;4102832;29;20477;-85
2021/05/25 07:09:40;;;;;;;10.00;8.00;;;11.30;98.30;;;;;;4106647;28;20503;-87
2021/05/25 07:11:44;;;;;;;8.20;7.33;;;11.20;98.30;;;;;;4118708;28;20519;-87
2021/05/25 07:13:47;;;;;;;7.97;6.40;;;11.20;98.30;;;;;;4110718;28;20472;-86
2021/05/25 07:15:52;;;;;;;7.53;6.83;;;11.10;98.30;;;;;;4108716;28;20540;-87
2021/05/25 07:21:03;;;;;;;9.10;8.20;;;10.90;98.30;;;;;;4103824;28;20476;-90
2021/05/25 07:23:08;;;;;;;7.50;6.70;;;11.10;98.30;;;;;;4104221;28;20551;-90
2021/05/25 07:25:15;;;;;;;8.30;7.50;;;11.10;98.30;;;;;;4117222;28;20559;-89
2021/05/25 07:27:18;;;;;;;9.87;7.50;;;11.10;98.30;;;;;;4118830;28;20866;-89
2021/05/25 07:29:24;;;;;;;8.50;7.63;;;11.20;98.30;;;;;;4118952;28;20455;-90
2021/05/25 07:31:26;;;;;;;8.50;7.60;;;11.10;98.30;;;;;;4118317;28;20861;-91
2021/05/25 07:33:31;;;;;;;9.00;8.07;;;11.10;98.30;;;;;;4117724;28;20468;-90
2021/05/25 07:35:36;;;;;;;9.00;7.73;;;11.20;98.30;;;;;;4118396;28;20468;-90
2021/05/25 07:37:40;;;;;;;9.90;7.90;;;11.30;98.30;;;;;;4119379;28;20851;-90
2021/05/25 07:39:44;;;;;;;9.23;8.00;;;11.40;98.30;;;;;;4118689;28;21017;-90
2021/05/25 07:41:48;;;;;;;7.63;7.03;;;11.50;98.30;;;;;;4118012;28;20885;-91
2021/05/25 07:43:52;;;;;;;7.97;7.17;;;11.40;98.30;;;;;;4117556;28;20691;-90
2021/05/25 07:45:55;;;;;;;6.67;6.03;;;11.40;98.30;;;;;;4118327;28;20479;-90
2021/05/25 07:47:58;;;;;;;10.33;6.43;;;11.40;98.30;;;;;;4118567;28;20468;-89
2021/05/25 07:50:12;;;;;;;6.87;6.30;;;11.50;98.30;;;;;;4104190;28;20504;-91
2021/05/25 07:52:17;;;;;;;8.57;6.17;;;11.70;98.30;;;;;;4109070;28;20491;-88
2021/05/25 07:54:20;;;;;;;6.63;6.03;;;11.80;98.30;;;;;;4106366;28;20997;-88
2021/05/25 07:56:23;;;;;;;6.77;6.17;;;11.90;98.30;;;;;;4113137;28;20833;-89
2021/05/25 07:58:26;;;;;;;7.37;6.60;;;12.10;98.30;;;;;;4113844;28;20993;-88
2021/05/25 08:00:30;;;;;;;6.17;5.67;;;12.20;98.30;;;;;;4113804;28;20965;-88
2021/05/25 08:02:33;;;;;;;6.70;5.53;;;12.30;98.30;;;;;;4111609;28;20501;-87
2021/05/25 08:04:36;;;;;;;9.00;5.33;;;12.30;98.30;;;;;;4101780;29;20496;-88
2021/05/25 08:06:39;;;;;;;5.50;5.00;;;12.20;98.30;;;;;;4110412;28;20464;-85
2021/05/25 08:08:41;;;;;;;5.43;4.93;;;12.10;98.30;;;;;;4105620;28;20897;-87
2021/05/25 08:10:44;;;;;;;5.70;4.80;;;12.10;98.30;;;;;;4114694;28;20995;-87
2021/05/25 08:12:48;;;;;;;5.50;5.00;;;12.20;98.30;;;;;;4111914;28;20464;-88
2021/05/25 08:14:52;;;;;;;6.00;5.40;;;12.10;98.30;;;;;;4113328;28;20543;-87
2021/05/25 08:17:03;;;;;;;5.80;5.20;;;12.00;98.30;;;;;;4118849;28;20476;-88
2021/05/25 08:19:12;;;;;;;5.03;4.63;;;12.10;98.30;;;;;;4124007;28;20500;-87
2021/05/25 08:21:16;;;;;;;3.60;3.30;;;12.40;98.30;;;;;;4113778;28;20497;-88
2021/05/25 08:23:18;;;;;;;6.17;3.70;;;12.50;98.30;;;;;;4107487;28;20578;-88
2021/05/25 08:25:26;;;;;;;4.20;3.80;;;12.60;98.30;;;;;;4105873;28;20988;-88
2021/05/25 08:27:28;;;;;;;3.47;3.17;;;12.70;98.30;;;;;;4109367;28;20484;-86
2021/05/25 08:29:47;;;;;;;3.90;3.30;;;12.60;98.30;;;;;;4107600;28;20475;-86
2021/05/25 08:32:34;;;;;;;7.60;3.70;;;12.50;98.30;;;;;;4110434;28;20858;-87
2021/05/25 08:34:54;;;;;;;4.07;3.47;;;12.20;98.30;;;;;;4074787;29;20467;-86
2021/05/25 08:36:59;;;;;;;11.70;3.50;;;12.00;98.30;;;;;;4079194;29;20465;-85
2021/05/25 08:39:05;;;;;;;6.60;4.30;;;11.90;98.30;;;;;;4071973;29;20471;-86
2021/05/25 08:41:21;;;;;;;4.77;3.50;;;11.90;98.30;;;;;;4072851;29;20517;-86
2021/05/25 08:43:26;;;;;;;4.70;3.90;;;11.90;98.30;;;;;;4070919;29;20483;-85
2021/05/25 08:45:29;;;;;;;6.40;3.60;;;11.70;98.30;;;;;;4071402;29;20998;-85
2021/05/25 08:47:33;;;;;;;3.77;3.43;;;11.60;98.30;;;;;;4074524;29;20467;-85
2021/05/25 08:49:37;;;;;;;3.30;3.00;;;11.40;98.30;;;;;;4072494;29;20462;-82
2021/05/25 08:52:38;;;;;;;3.47;3.17;;;11.40;98.30;;;;;;4073621;29;21199;-86
2021/05/25 08:54:56;;;;;;;2.70;2.50;;;11.40;98.30;;;;;;4063966;29;20472;-83
2021/05/25 08:57:10;;;;;;;3.63;2.70;;;11.50;98.30;;;;;;4053649;29;20470;-84
2021/05/25 08:59:16;;;;;;;3.87;3.10;;;11.60;98.30;;;;;;4059878;29;20522;-83
2021/05/25 09:01:22;;;;;;;4.10;3.03;;;11.90;98.30;;;;;;4062677;29;20494;-85
2021/05/25 09:03:29;;;;;;;9.10;5.40;;;12.20;98.30;;;;;;4064048;29;20562;-83
2021/05/25 09:05:55;;;;;;;3.53;3.00;;;12.40;98.30;;;;;;4073241;29;20468;-85
2021/05/25 09:07:59;;;;;;;3.70;3.10;;;12.40;98.30;;;;;;4094255;29;20473;-84
2021/05/25 09:10:01;;;;;;;4.40;3.40;;;12.40;98.30;;;;;;4099296;29;20509;-83
2021/05/25 09:12:06;;;;;;;3.07;2.77;;;12.40;98.30;;;;;;4097745;28;20493;-86
2021/05/25 09:14:22;;;;;;;3.40;3.10;;;12.40;98.30;;;;;;4099267;28;20461;-84
2021/05/25 09:16:28;;;;;;;3.10;2.80;;;12.60;98.30;;;;;;4097511;29;20975;-85
2021/05/25 09:18:34;;;;;;;3.10;2.80;;;12.60;98.30;;;;;;4103397;28;20562;-86
2021/05/25 09:20:42;;;;;;;4.30;3.07;;;12.60;98.30;;;;;;4097759;29;20469;-86
2021/05/25 09:22:44;;;;;;;3.30;3.00;;;12.70;98.30;;;;;;4099043;28;20485;-87
2021/05/25 09:24:47;;;;;;;3.80;3.50;;;12.50;98.30;;;;;;4104471;28;20492;-84
2021/05/25 09:26:53;;;;;;;4.10;3.70;;;12.50;98.30;;;;;;4099023;28;20507;-84
2021/05/25 09:28:58;;;;;;;4.00;3.60;;;12.40;98.30;;;;;;4097071;28;20480;-83
2021/05/25 09:31:03;;;;;;;5.37;4.13;;;12.40;98.30;;;;;;4094753;28;20479;-84
2021/05/25 09:33:09;;;;;;;6.60;4.03;;;12.10;98.30;;;;;;4103113;28;20563;-86
2021/05/25 09:35:13;;;;;;;4.73;4.07;;;12.00;98.30;;;;;;4095150;28;20976;-86
2021/05/25 09:37:16;;;;;;;6.40;4.73;;;11.90;98.30;;;;;;4098818;28;20472;-86
2021/05/25 09:39:18;;;;;;;5.40;4.20;;;11.80;98.30;;;;;;4097787;28;20483;-87
2021/05/25 09:41:21;;;;;;;4.50;4.10;;;11.70;98.30;;;;;;4098667;28;20576;-87
2021/05/25 09:43:26;;;;;;;5.00;3.73;;;11.70;98.30;;;;;;4095996;28;20469;-87
2021/05/25 09:45:29;;;;;;;4.43;3.70;;;11.80;98.30;;;;;;4096108;28;20473;-87
2021/05/25 09:47:36;;;;;;;4.00;3.63;;;11.90;98.30;;;;;;4097808;28;20476;-86
2021/05/25 09:49:40;;;;;;;4.17;3.50;;;12.00;98.30;;;;;;4098735;28;20477;-86
2021/05/25 09:51:43;;;;;;;5.30;3.70;;;12.10;98.30;;;;;;4096226;28;20476;-86
2021/05/25 09:53:48;;;;;;;5.40;4.00;;;12.40;98.30;;;;;;4099447;28;20560;-85
2021/05/25 09:55:53;;;;;;;4.13;3.70;;;12.80;98.30;;;;;;4102767;28;20567;-86
2021/05/25 09:57:57;;;;;;;6.30;3.70;;;13.20;98.30;;;;;;4105126;28;20473;-84
2021/05/25 09:59:59;;;;;;;4.67;4.20;;;13.40;98.30;;;;;;4097989;28;20893;-86
2021/05/25 10:02:24;;;;;;;5.87;4.33;;;13.50;98.30;;;;;;4097665;28;20503;-86
2021/05/25 10:04:27;;;;;;;6.40;5.37;;;13.40;98.30;;;;;;4093420;28;20587;-87
2021/05/25 10:06:31;;;;;;;5.87;5.37;;;13.70;98.30;;;;;;4096770;28;20492;-86
2021/05/25 10:08:34;;;;;;;4.93;4.43;;;14.10;98.30;;;;;;4095931;28;21229;-86
2021/05/25 10:10:37;;;;;;;5.30;4.80;;;14.20;98.30;;;;;;4098869;28;20465;-86
2021/05/25 10:12:42;;;;;;;6.47;5.10;;;14.20;98.30;;;;;;4095965;28;20583;-86
2021/05/25 10:14:45;;;;;;;5.40;4.20;;;13.90;98.30;;;;;;4096720;28;20568;-86
2021/05/25 10:16:52;;;;;;;5.50;5.00;;;13.90;98.30;;;;;;4095392;28;20476;-85
2021/05/25 10:19:12;;;;;;;5.37;4.87;;;13.90;98.30;;;;;;4098863;28;20523;-87
2021/05/25 10:21:15;;;;;;;7.13;4.67;;;13.80;98.30;;;;;;4099531;28;20489;-85
2021/05/25 10:23:20;;;;;;;6.83;5.00;;;13.60;98.30;;;;;;4097898;28;20509;-85
2021/05/25 10:25:25;;;;;;;6.07;5.30;;;13.30;98.30;;;;;;4099517;28;20488;-85
2021/05/25 10:27:29;;;;;;;5.50;5.00;;;13.00;98.30;;;;;;4099452;28;20473;-85
2021/05/25 10:29:31;;;;;;;7.27;5.73;;;12.70;98.30;;;;;;4104751;28;20984;-87
2021/05/25 10:31:36;;;;;;;5.87;5.13;;;12.60;98.30;;;;;;4099412;28;20526;-86
2021/05/25 10:33:39;;;;;;;6.53;5.83;;;12.50;98.30;;;;;;4096981;28;20552;-85
2021/05/25 10:36:16;;;;;;;10.27;5.83;;;12.50;98.30;;;;;;4101403;28;20548;-86
2021/05/25 10:38:26;;;;;;;6.63;5.30;;;12.40;98.30;;;;;;4048924;29;20507;-86
2021/05/25 10:40:37;;;;;;;8.53;5.13;;;12.30;98.30;;;;;;4047451;29;20476;-87
2021/05/25 10:42:39;;;;;;;6.90;6.07;;;12.30;98.30;;;;;;4047622;29;20610;-86
2021/05/25 10:45:14;;;;;;;6.43;4.87;;;12.20;98.30;;;;;;4097181;28;20485;-85
2021/05/25 10:47:22;;;;;;;3.63;3.23;;;12.20;98.30;;;;;;4095513;28;20469;-85
2021/05/25 10:49:54;;;;;;;7.03;4.50;;;12.20;98.30;;;;;;4096526;28;20468;-84
2021/05/25 10:52:08;;;;;;;5.43;4.10;;;12.50;98.30;;;;;;4098257;28;20512;-87
2021/05/25 10:54:29;;;;;;;6.30;4.10;;;12.70;98.30;;;;;;4095856;29;20472;-85